CCGS Sir Wilfrid Laurier — CGJK — position and weather

sailwx.info

Track history (hours):
 
Tides and Currents Weather Stations Pressure Air Temp Water Temp Dewpoint Dewpoint Depression Visibility Wind Speed Wind Dir Waves Ship Positions

Oceanographic research ship CCGS Sir Wilfrid Laurier (Canada)

Detailed information on ship capabilities available from ARCUS's ALIAS (Arctic Logistics Information and Support) project.

Last reported at 2017-Apr-25 16:00 UTC. Time now 2017-Apr-25 16:34 UTC.
Position N 48°24' W 123°24'.

Length 83 m; beam 16.2 m; draft 6 m.

Type: SAR. MMSI: 316052000.

Wind from 150 at 5 knots

Barometer 1013.1 mb
Air temperature 10.6 ° C
Dewpoint 7.0 ° C
Water temperature 10.3 ° C

Date/timePositionNaut miles runAvg speedWind from/ knotsBaromVisibWave heightAir tempDewpointWater temp
2017-Apr-25 16:00N 48°24' W 123°24'0 0.0 150 / 51013.1 10.6 7.010.3
2017-Apr-25 15:00N 48°24' W 123°24'110.8 150 / 21013.8 9.9 6.910.2
2017-Apr-25 14:52N 48°25' W 123°23'0 0.4
2017-Apr-25 14:30N 48°25' W 123°24'1 2.3
2017-Apr-25 14:00N 48°24' W 123°24'2 3.5 250 / 41013.6 9.8 6.7 9.6
2017-Apr-25 13:30N 48°23' W 123°26'1 1.7
2017-Apr-25 13:00N 48°23' W 123°27'2157.5
2017-Apr-25 13:00N 48°24' W 123°30'3 5.4 230 / 101013.1 9.8 7.0 9.6
2017-Apr-25 12:30N 48°21' W 123°29'0 0.6
2017-Apr-25 12:00N 48°21' W 123°29'3187.5
2017-Apr-25 12:00N 48°24' W 123°30'3 5.4 220 / 61012.9 9.6 7.2 9.6
2017-Apr-25 11:30N 48°22' W 123°28'0 0.2
2017-Apr-25 11:00N 48°22' W 123°28'3275.0
2017-Apr-25 11:00N 48°24' W 123°30'3 5.2 250 / 91012.9 9.5 7.9 9.7
2017-Apr-25 10:30N 48°22' W 123°29'1 2.4
2017-Apr-25 10:00N 48°21' W 123°30'3177.0
2017-Apr-25 10:00N 48°18' W 123°30'3 6.3 250 / 101012.9 9.3 8.5 9.8
2017-Apr-25 09:30N 48°21' W 123°29'2 3.1
2017-Apr-25 09:00N 48°22' W 123°28'2148.8
2017-Apr-25 09:00N 48°24' W 123°30'2 4.7 250 / 151012.3 9.7 8.8 9.6
2017-Apr-25 08:30N 48°22' W 123°27'1 1.3
2017-Apr-25 08:00N 48°23' W 123°27'2 3.8
2017-Apr-25 07:30N 48°23' W 123°24'5 9.2
2017-Apr-25 07:00N 48°23' W 123°17'159.0
2017-Apr-25 07:00N 48°24' W 123°18'4 8.8 260 / 171011.5 10.4 9.2 9.5
2017-Apr-25 06:30N 48°26' W 123°12'612.1
2017-Apr-25 06:01N 48°32' W 123°13'2136.6
2017-Apr-25 06:00N 48°30' W 123°12'817.5 200 / 71010.9 11.0 8.2 9.5
2017-Apr-25 05:30N 48°38' W 123°15'510.8
2017-Apr-25 05:00N 48°43' W 123°12'186.8
2017-Apr-25 05:00N 48°42' W 123°12'612.3 080 / 21010.6 10.8 7.9 9.5
2017-Apr-25 04:30N 48°46' W 123°05'5 9.5
2017-Apr-25 04:00N 48°50' W 123°02'2164.5
2017-Apr-25 04:00N 48°48' W 123°00'817.2 200 / 101009.4 12.0 7.510.9
2017-Apr-25 03:30N 48°54' W 123°08'612.2
2017-Apr-25 03:00N 48°58' W 123°16'4503.2
2017-Apr-25 03:00N 48°54' W 123°18'918.5 240 / 51008.7 12.2 9.311.5
2017-Apr-25 02:30N 49°03' W 123°22'611.1
2017-Apr-25 02:00N 49°08' W 123°23'2142.8
2017-Apr-25 02:00N 49°06' W 123°24'817.1 300 / 141008.0 12.6 8.411.1
2017-Apr-25 01:30N 49°14' W 123°22'3 6.9
2017-Apr-25 01:00N 49°18' W 123°22'182.0
2017-Apr-25 01:00N 49°18' W 123°24'2 3.6 280 / 151007.7 12.1 8.711.3
2017-Apr-25 00:30N 49°18' W 123°21'0 0.1
2017-Apr-25 00:00N 49°18' W 123°21'2122.3
2017-Apr-25 00:00N 49°18' W 123°24'1 1.6 280 / 141007.8 11.4 9.011.1
2017-Apr-24 23:30N 49°18' W 123°25'2 4.2
2017-Apr-24 23:01N 49°18' W 123°22'178.7
2017-Apr-24 23:00N 49°18' W 123°24'2 4.1 280 / 161007.8 11.3 9.111.3
2017-Apr-24 22:30N 49°18' W 123°21'2 4.5
2017-Apr-24 22:00N 49°19' W 123°18'165.3
2017-Apr-24 22:00N 49°18' W 123°18'3 7.2 270 / 181007.8 10.6 8.711.5
2017-Apr-24 21:30N 49°19' W 123°13'5 9.8
2017-Apr-24 21:01N 49°18' W 123°06'014.4
2017-Apr-24 21:00N 49°18' W 123°06'1 1.9 260 / 161008.0 11.0 7.2 9.8
2017-Apr-24 20:29N 49°18' W 123°05'1 2.0
2017-Apr-24 20:00N 49°18' W 123°06'1110.6 270 / 71008.1 11.5 8.1
2017-Apr-24 19:59N 49°18' W 123°05'0 0.0
2017-Apr-24 19:29N 49°18' W 123°05'1 2.0
2017-Apr-24 19:00N 49°18' W 123°06'1107.2 270 / 41008.1 11.0 7.7
2017-Apr-24 18:59N 49°18' W 123°05'0 0.0
2017-Apr-24 18:29N 49°18' W 123°05'1 2.0
2017-Apr-24 18:00N 49°18' W 123°06'1110.6 180 / 11008.1 11.0 7.0
2017-Apr-24 17:59N 49°18' W 123°05'0 0.0
2017-Apr-24 17:29N 49°18' W 123°05'1 2.0
2017-Apr-24 17:00N 49°18' W 123°06'1107.5 180 / 21008.0 9.5 7.9
2017-Apr-24 16:59N 49°18' W 123°05'0 0.0
2017-Apr-24 16:29N 49°18' W 123°05'1 2.0
2017-Apr-24 16:00N 49°18' W 123°06'1114.2 130 / 21007.9 8.2 7.9
2017-Apr-24 15:59N 49°18' W 123°05'0 0.0
2017-Apr-24 15:29N 49°18' W 123°05'1 2.0
2017-Apr-24 15:00N 49°18' W 123°06'1107.2 100 / 11007.6 7.8 7.2
2017-Apr-24 14:59N 49°18' W 123°05'0 0.0
2017-Apr-24 14:29N 49°18' W 123°05'1 2.0
2017-Apr-24 14:00N 49°18' W 123°06'1 1.9 130 / 21007.4 7.1 6.9
2017-Apr-24 13:29N 49°18' W 123°05'1 2.0
2017-Apr-24 13:00N 49°18' W 123°06'1107.2 110 / 11007.4 7.0 6.8
2017-Apr-24 12:59N 49°18' W 123°05'0 0.0
2017-Apr-24 12:29N 49°18' W 123°05'1 2.0
2017-Apr-24 12:00N 49°18' W 123°06'1110.6 110 / 11007.5 7.2 6.8
2017-Apr-24 11:59N 49°18' W 123°05'0 0.0
2017-Apr-24 11:29N 49°18' W 123°05'1 2.0
2017-Apr-24 11:00N 49°18' W 123°06'1110.6 040 / 71007.6 7.4 6.0
2017-Apr-24 10:59N 49°18' W 123°05'0 0.0
2017-Apr-24 10:29N 49°18' W 123°05'1 2.0
2017-Apr-24 10:00N 49°18' W 123°06'1110.6 050 / 101007.9 7.4 6.1
2017-Apr-24 09:59N 49°18' W 123°05'0 0.0
2017-Apr-24 09:29N 49°18' W 123°05'1 2.0
2017-Apr-24 09:00N 49°18' W 123°06'1110.9 040 / 21008.3 7.6 7.3
2017-Apr-24 08:59N 49°18' W 123°05'0 0.0
2017-Apr-24 08:29N 49°18' W 123°05'1 2.0
2017-Apr-24 08:00N 49°18' W 123°06'1107.2 340 / 21008.4 8.6 8.0
2017-Apr-24 07:59N 49°18' W 123°05'0 0.0
2017-Apr-24 07:29N 49°18' W 123°05'1 2.0
2017-Apr-24 07:00N 49°18' W 123°06'1107.2 1008.6 8.6 8.4
2017-Apr-24 06:59N 49°18' W 123°05'0 0.0
2017-Apr-24 06:29N 49°18' W 123°05'1 2.0
2017-Apr-24 06:00N 49°18' W 123°06'1107.2 010 / 31008.6 9.4 9.1
2017-Apr-24 05:59N 49°18' W 123°05'0 0.0
2017-Apr-24 05:29N 49°18' W 123°05'1 2.0
2017-Apr-24 05:00N 49°18' W 123°06'1110.6 090 / 31008.6 9.4 9.2
2017-Apr-24 04:59N 49°18' W 123°05'0 0.0
2017-Apr-24 04:29N 49°18' W 123°05'1 2.0
2017-Apr-24 04:00N 49°18' W 123°06'1110.6 080 / 61008.4 9.5 9.3
2017-Apr-24 03:59N 49°18' W 123°05'0 0.0
2017-Apr-24 03:29N 49°18' W 123°05'1 2.0
2017-Apr-24 03:00N 49°18' W 123°06'1110.6 080 / 51008.2 9.8 9.3
2017-Apr-24 02:59N 49°18' W 123°05'0 0.0
2017-Apr-24 02:29N 49°18' W 123°05'1 2.0
2017-Apr-24 02:00N 49°18' W 123°06'1110.6 080 / 41008.5 10.2 9.4
2017-Apr-24 01:59N 49°18' W 123°05'0 0.0
2017-Apr-24 01:29N 49°18' W 123°05'1 2.0
2017-Apr-24 01:00N 49°18' W 123°06'1107.2 080 / 61009.0 10.5 9.6
2017-Apr-24 00:59N 49°18' W 123°05'0 0.0
2017-Apr-24 00:29N 49°18' W 123°05'1 2.0
2017-Apr-24 00:00N 49°18' W 123°06'1110.9 080 / 61009.1 11.1 8.8
2017-Apr-23 23:59N 49°18' W 123°05'0 0.0
2017-Apr-23 23:29N 49°18' W 123°05'1 2.0
2017-Apr-23 23:00N 49°18' W 123°06'1110.6 070 / 41009.3 11.9 8.9
2017-Apr-23 22:59N 49°18' W 123°05'0 0.0
2017-Apr-23 22:29N 49°18' W 123°05'1 2.0
2017-Apr-23 22:00N 49°18' W 123°06'1107.2 090 / 41009.6 13.3 7.0
2017-Apr-23 21:59N 49°18' W 123°05'0 0.0
2017-Apr-23 21:29N 49°18' W 123°05'1 2.0
2017-Apr-23 21:00N 49°18' W 123°06'1107.2 100 / 51010.3 13.0 7.2
2017-Apr-23 20:59N 49°18' W 123°05'0 0.0
2017-Apr-23 20:29N 49°18' W 123°05'1 2.0
2017-Apr-23 20:00N 49°18' W 123°06'1104.4 100 / 41011.2 12.1 7.6
2017-Apr-23 19:59N 49°18' W 123°05'0 0.0
2017-Apr-23 19:29N 49°18' W 123°05'1 2.0
2017-Apr-23 19:00N 49°18' W 123°06'1107.2 090 / 51011.8 11.6 8.0
2017-Apr-23 18:59N 49°18' W 123°05'0 0.0
2017-Apr-23 18:29N 49°18' W 123°05'1 2.0
2017-Apr-23 18:00N 49°18' W 123°06'1107.2 090 / 51012.1 11.4 8.2
2017-Apr-23 17:59N 49°18' W 123°05'0 0.0
2017-Apr-23 17:29N 49°18' W 123°05'1 2.0
2017-Apr-23 17:00N 49°18' W 123°06'1110.6 100 / 51011.9 10.6 8.8
2017-Apr-23 16:59N 49°18' W 123°05'0 0.0
2017-Apr-23 16:29N 49°18' W 123°05'1 2.0
2017-Apr-23 16:00N 49°18' W 123°06'1107.2 080 / 51012.1 9.6 9.1
2017-Apr-23 15:59N 49°18' W 123°05'0 0.0
2017-Apr-23 15:29N 49°18' W 123°05'1 2.0
2017-Apr-23 15:00N 49°18' W 123°06'1110.6 080 / 41012.5 9.3 9.0
2017-Apr-23 14:59N 49°18' W 123°05'1 1.0
2017-Apr-23 14:00N 49°18' W 123°06'1104.1 080 / 41012.4 8.9 8.8
2017-Apr-23 13:59N 49°18' W 123°05'0 0.0
2017-Apr-23 13:29N 49°18' W 123°05'1 2.0
2017-Apr-23 13:00N 49°18' W 123°06'1104.1 110 / 31012.5 8.6 8.4
2017-Apr-23 12:59N 49°18' W 123°05'0 0.0
2017-Apr-23 12:29N 49°18' W 123°05'1 2.0
2017-Apr-23 12:00N 49°18' W 123°06'1110.6 060 / 21012.5 9.3 8.4
2017-Apr-23 11:59N 49°18' W 123°05'0 0.0
2017-Apr-23 11:29N 49°18' W 123°05'1 2.0
2017-Apr-23 11:00N 49°18' W 123°06'1107.2 070 / 41013.1 8.8 8.3
2017-Apr-23 10:59N 49°18' W 123°05'0 0.0
2017-Apr-23 10:29N 49°18' W 123°05'1 2.0
2017-Apr-23 10:00N 49°18' W 123°06'1107.2 090 / 61013.3 8.9 8.7
2017-Apr-23 09:59N 49°18' W 123°05'0 0.0
2017-Apr-23 09:29N 49°18' W 123°05'1 2.0
2017-Apr-23 09:00N 49°18' W 123°06'1104.1 050 / 11013.6 9.6 9.4
2017-Apr-23 08:59N 49°18' W 123°05'0 0.0
2017-Apr-23 08:29N 49°18' W 123°05'1 2.0
2017-Apr-23 08:00N 49°18' W 123°06'1107.2 070 / 11013.6 9.8 9.6
2017-Apr-23 07:59N 49°18' W 123°05'0 0.0
2017-Apr-23 07:29N 49°18' W 123°05'1 2.0
2017-Apr-23 07:00N 49°18' W 123°06'1104.1 190 / 11013.4 10.7 9.0
2017-Apr-23 06:59N 49°18' W 123°05'0 0.0
2017-Apr-23 06:29N 49°18' W 123°05'1 2.0
2017-Apr-23 06:00N 49°18' W 123°06'1107.2 340 / 11013.5 11.8 9.1
2017-Apr-23 05:59N 49°18' W 123°05'0 0.0
2017-Apr-23 05:29N 49°18' W 123°05'1 2.0
2017-Apr-23 05:00N 49°18' W 123°06'1104.1 1013.4 11.510.3
2017-Apr-23 04:59N 49°18' W 123°05'0 0.0
2017-Apr-23 04:29N 49°18' W 123°05'1 2.0
2017-Apr-23 04:00N 49°18' W 123°06'1110.6 080 / 41012.6 12.310.0
2017-Apr-23 03:59N 49°18' W 123°05'0 0.0
2017-Apr-23 03:29N 49°18' W 123°05'1 2.0
2017-Apr-23 03:00N 49°18' W 123°06'1110.6 080 / 61012.0 11.910.8
2017-Apr-23 02:59N 49°18' W 123°05'0 0.0
2017-Apr-23 02:29N 49°18' W 123°05'1 2.0
2017-Apr-23 02:00N 49°18' W 123°06'1107.2 120 / 41011.4 11.310.9
2017-Apr-23 01:59N 49°18' W 123°05'0 0.0
2017-Apr-23 01:29N 49°18' W 123°05'1 2.0
2017-Apr-23 01:00N 49°18' W 123°06'116.6 080 / 61011.1 11.910.6
2017-Apr-23 00:56N 49°18' W 123°05'0 0.0
2017-Apr-23 00:29N 49°18' W 123°05'1 2.0
2017-Apr-23 00:00N 49°18' W 123°06'1107.5 090 / 41010.8 12.810.0
2017-Apr-22 23:59N 49°18' W 123°05'0 0.0
2017-Apr-22 23:29N 49°18' W 123°05'1 2.0
2017-Apr-22 23:00N 49°18' W 123°06'1107.2 080 / 81010.9 12.6 9.3
2017-Apr-22 22:59N 49°18' W 123°05'0 0.0
2017-Apr-22 22:29N 49°18' W 123°05'1 2.0
2017-Apr-22 22:00N 49°18' W 123°06'1107.5 060 / 71011.0 11.8 9.4
2017-Apr-22 21:59N 49°18' W 123°05'0 0.0
2017-Apr-22 21:29N 49°18' W 123°05'1 2.0
2017-Apr-22 21:00N 49°18' W 123°06'1107.5 170 / 101011.2 11.9 9.1
2017-Apr-22 20:59N 49°18' W 123°05'0 0.0
2017-Apr-22 20:29N 49°18' W 123°05'1 2.0
2017-Apr-22 20:00N 49°18' W 123°06'1104.4 180 / 11009.0 13.1 7.6
2017-Apr-22 19:59N 49°18' W 123°05'0 0.0
2017-Apr-22 19:29N 49°18' W 123°05'1 2.0
2017-Apr-22 19:00N 49°18' W 123°06'1107.2 320 / 61008.2 12.8 8.1
2017-Apr-22 18:59N 49°18' W 123°05'0 0.0
2017-Apr-22 18:29N 49°18' W 123°05'1 2.0
2017-Apr-22 18:00N 49°18' W 123°06'1104.4 260 / 11007.6 12.2 7.9
2017-Apr-22 17:59N 49°18' W 123°05'0 0.0
2017-Apr-22 17:29N 49°18' W 123°05'1 2.0
2017-Apr-22 17:00N 49°18' W 123°06'1110.9 270 / 41008.2 12.4 6.0
2017-Apr-22 16:59N 49°18' W 123°05'0 0.0
2017-Apr-22 16:29N 49°18' W 123°05'1 2.0
2017-Apr-22 16:00N 49°18' W 123°06'1107.2 290 / 21007.9 12.5 5.5
2017-Apr-22 15:59N 49°18' W 123°05'0 0.0
2017-Apr-22 15:29N 49°18' W 123°05'1 2.0
2017-Apr-22 15:00N 49°18' W 123°06'1104.1 320 / 11009.1 11.6 5.5
2017-Apr-22 14:59N 49°18' W 123°05'0 0.0
2017-Apr-22 14:29N 49°18' W 123°05'1 2.0
2017-Apr-22 14:00N 49°18' W 123°06'1 1.9 270 / 11009.9 11.7 4.4
2017-Apr-22 13:29N 49°18' W 123°05'1 2.0
2017-Apr-22 13:00N 49°18' W 123°06'1107.2 120 / 21010.8 11.0 4.9
2017-Apr-22 12:59N 49°18' W 123°05'0 0.0
2017-Apr-22 12:29N 49°18' W 123°05'1 2.0
2017-Apr-22 12:00N 49°18' W 123°06'1107.2 090 / 21012.0 10.3 5.4
2017-Apr-22 11:59N 49°18' W 123°05'0 0.0
2017-Apr-22 11:29N 49°18' W 123°05'1 2.0
2017-Apr-22 11:00N 49°18' W 123°06'1107.5 280 / 11013.2 11.3 5.2
2017-Apr-22 10:59N 49°18' W 123°05'0 0.0
2017-Apr-22 10:29N 49°18' W 123°05'1 2.0
2017-Apr-22 10:00N 49°18' W 123°06'1104.1 090 / 31013.8 11.3 5.0
2017-Apr-22 09:59N 49°18' W 123°05'0 0.0
2017-Apr-22 09:29N 49°18' W 123°05'1 2.0
2017-Apr-22 09:00N 49°18' W 123°06'1107.5 080 / 11014.9 12.2 4.4
2017-Apr-22 08:59N 49°18' W 123°05'0 0.0
2017-Apr-22 08:29N 49°18' W 123°05'1 2.0
2017-Apr-22 08:00N 49°18' W 123°06'1107.2 060 / 21016.2 12.4 3.7
2017-Apr-22 07:59N 49°18' W 123°05'0 0.0
2017-Apr-22 07:29N 49°18' W 123°05'1 2.0
2017-Apr-22 07:00N 49°18' W 123°06'1104.1 080 / 31016.9 13.0 4.0
2017-Apr-22 06:59N 49°18' W 123°05'0 0.0
2017-Apr-22 06:29N 49°18' W 123°05'1 2.0
2017-Apr-22 06:00N 49°18' W 123°06'1107.2 130 / 11017.6 13.5 4.0
2017-Apr-22 05:59N 49°18' W 123°05'0 0.0
2017-Apr-22 05:29N 49°18' W 123°05'1 2.0
2017-Apr-22 05:00N 49°18' W 123°06'1107.2 140 / 21018.3 13.8 4.1
2017-Apr-22 04:59N 49°18' W 123°05'0 0.0
2017-Apr-22 04:29N 49°18' W 123°05'1 2.0
2017-Apr-22 04:00N 49°18' W 123°06'1104.4 340 / 11019.1 14.2 5.6
2017-Apr-22 03:59N 49°18' W 123°05'0 0.0
2017-Apr-22 03:29N 49°18' W 123°05'1 2.0
2017-Apr-22 03:00N 49°18' W 123°06'1104.4 260 / 11020.0 14.5 7.8
2017-Apr-22 02:59N 49°18' W 123°05'0 0.0
2017-Apr-22 02:29N 49°18' W 123°05'1 2.0
2017-Apr-22 02:00N 49°18' W 123°06'1107.2 280 / 31020.6 15.6 8.2
2017-Apr-22 01:59N 49°18' W 123°05'0 0.0
2017-Apr-22 01:29N 49°18' W 123°05'1 2.0
2017-Apr-22 01:00N 49°18' W 123°06'1104.1 270 / 21022.0 14.7 7.5
2017-Apr-22 00:59N 49°18' W 123°05'0 0.0
2017-Apr-22 00:29N 49°18' W 123°05'1 2.0
2017-Apr-22 00:00N 49°18' W 123°06'1104.4 290 / 41022.9 14.6 7.6
2017-Apr-21 23:59N 49°18' W 123°05'0 0.0
2017-Apr-21 23:29N 49°18' W 123°05'1 2.0
2017-Apr-21 23:00N 49°18' W 123°06'1104.1 290 / 21024.2 14.6 7.8
2017-Apr-21 22:59N 49°18' W 123°05'0 0.0
2017-Apr-21 22:29N 49°18' W 123°05'1 2.0
2017-Apr-21 22:00N 49°18' W 123°06'1104.4 280 / 41025.2 14.2 8.5
2017-Apr-21 21:59N 49°18' W 123°05'0 0.0
2017-Apr-21 21:30N 49°18' W 123°05'0 0.0
2017-Apr-21 21:00N 49°18' W 123°05'0 0.0
2017-Apr-21 20:30N 49°18' W 123°05'0 0.0
2017-Apr-21 20:00N 49°18' W 123°05'184.5
2017-Apr-21 20:00N 49°18' W 123°06'1 2.0 310 / 21027.4 15.1 8.9
2017-Apr-21 19:30N 49°18' W 123°05'0 0.0
2017-Apr-21 19:00N 49°18' W 123°05'186.3
2017-Apr-21 19:00N 49°18' W 123°06'1 2.0 280 / 41028.2 14.2 8.5
2017-Apr-21 18:30N 49°18' W 123°05'1 1.9
2017-Apr-21 18:00N 49°18' W 123°06'0 0.0 170 / 11029.2 13.5 7.5
2017-Apr-21 17:00N 49°18' W 123°06'0 0.0 160 / 21029.9 12.1 7.9
2017-Apr-21 16:00N 49°18' W 123°06'0 0.0 120 / 51030.1 11.2 7.6
2017-Apr-21 15:00N 49°18' W 123°06'0 0.0 130 / 31030.3 10.6 7.1
2017-Apr-21 14:00N 49°18' W 123°06'0 0.0 130 / 31030.4 8.3 6.4
2017-Apr-21 13:00N 49°18' W 123°06'0 0.0 130 / 11030.2 8.1 6.5
2017-Apr-21 12:00N 49°18' W 123°06'0 0.0 140 / 11029.9 7.8 6.5
2017-Apr-21 11:00N 49°18' W 123°06'0 0.0 110 / 31029.8 7.3 6.1
2017-Apr-21 10:00N 49°18' W 123°06'0 0.0 110 / 41029.4 7.2 6.2
2017-Apr-21 09:00N 49°18' W 123°06'0 0.0 100 / 21029.3 8.1 6.1
2017-Apr-21 08:00N 49°18' W 123°06'0 0.0 120 / 11029.1 8.1 6.5
2017-Apr-21 07:00N 49°18' W 123°06'0 0.0 110 / 21028.9 8.9 6.5
2017-Apr-21 06:00N 49°18' W 123°06'0 0.0 080 / 11028.2 10.0 6.4
2017-Apr-21 05:00N 49°18' W 123°06'0 0.0 080 / 21027.7 10.3 6.8
2017-Apr-21 04:00N 49°18' W 123°06'0 0.0 350 / 31026.7 12.2 7.5
2017-Apr-21 03:00N 49°18' W 123°06'0 0.0 310 / 31026.0 12.5 6.4
2017-Apr-21 02:00N 49°18' W 123°06'0 0.0 290 / 31025.4 13.3 6.5
2017-Apr-21 01:00N 49°18' W 123°06'0 0.0 310 / 41025.3 13.7 7.1
2017-Apr-21 00:00N 49°18' W 123°06'0 0.0 320 / 61024.8 14.4 7.3
2017-Apr-20 23:00N 49°18' W 123°06'0 0.0 300 / 31024.3 14.8 8.6
2017-Apr-20 22:00N 49°18' W 123°06'0 0.0 180 / 21024.0 12.5 8.1
2017-Apr-20 21:00N 49°18' W 123°06'0 0.0 290 / 11023.7 13.4 9.8
2017-Apr-20 20:00N 49°18' W 123°06'0 0.0 110 / 11023.4 11.1 8.8
2017-Apr-20 19:00N 49°18' W 123°06'0 0.0 150 / 21022.9 11.3 8.5
2017-Apr-20 18:00N 49°18' W 123°06'0 0.0 150 / 41022.4 10.1 8.2
2017-Apr-20 17:00N 49°18' W 123°06'0 0.0 120 / 31021.9 10.5 8.0
2017-Apr-20 16:00N 49°18' W 123°06'0 0.0 130 / 31021.4 8.6 7.4
2017-Apr-20 15:00N 49°18' W 123°06'0 0.0 130 / 31020.7 7.8 7.3
2017-Apr-20 14:00N 49°18' W 123°06'0 0.0 120 / 41020.1 7.4 6.9
2017-Apr-20 13:00N 49°18' W 123°06'0 0.0 110 / 41019.5 7.4 6.7
2017-Apr-20 12:00N 49°18' W 123°06'0 0.0 070 / 21018.9 8.3 6.7
2017-Apr-20 11:00N 49°18' W 123°06'0 0.0 070 / 81018.8 8.3 6.6
2017-Apr-20 10:00N 49°18' W 123°06'0 0.0 080 / 31018.3 8.8 8.1
2017-Apr-20 09:00N 49°18' W 123°06'0 0.0 090 / 31017.8 9.4 9.0
2017-Apr-20 08:00N 49°18' W 123°06'0 0.0 060 / 41017.8 9.5 8.8
2017-Apr-20 07:00N 49°18' W 123°06'0 0.0 220 / 11016.8 10.2 8.3
2017-Apr-20 06:00N 49°18' W 123°06'0 0.0 130 / 31016.6 10.7 7.4
2017-Apr-20 05:00N 49°18' W 123°06'0 0.0 070 / 51016.3 11.8 6.3
2017-Apr-20 04:00N 49°18' W 123°06'0 0.0 070 / 71016.2 12.3 6.3
2017-Apr-20 03:00N 49°18' W 123°06'0 0.0 090 / 31016.7 12.4 6.8
2017-Apr-20 02:00N 49°18' W 123°06'0 0.0 100 / 41017.1 12.8 6.8
2017-Apr-20 01:00N 49°18' W 123°06'0 0.0 110 / 71017.6 13.2 6.6
2017-Apr-20 00:00N 49°18' W 123°06'0 0.0 140 / 71017.5 12.9 6.4
2017-Apr-19 23:00N 49°18' W 123°06'0 0.0 150 / 51018.2 12.6 7.0
2017-Apr-19 22:00N 49°18' W 123°06'0 0.0 150 / 111018.3 12.2 7.0
2017-Apr-19 21:00N 49°18' W 123°06'0 0.0 160 / 81017.8 11.9 7.4
2017-Apr-19 20:00N 49°18' W 123°06'0 0.0 090 / 31017.7 11.4 7.8
2017-Apr-19 19:00N 49°18' W 123°06'0 0.0 140 / 71016.9 12.5 6.2
2017-Apr-19 18:00N 49°18' W 123°06'0 0.0 150 / 71015.8 12.8 5.7
2017-Apr-19 17:00N 49°18' W 123°06'0 0.0 090 / 41015.1 14.0 4.9
2017-Apr-19 16:00N 49°18' W 123°06'0 0.0 100 / 51015.5 12.4 5.1
2017-Apr-19 15:00N 49°18' W 123°06'0 0.0 120 / 41015.7 10.7 6.6
2017-Apr-19 14:00N 49°18' W 123°06'0 0.0 130 / 41015.6 10.0 7.0
2017-Apr-19 13:00N 49°18' W 123°06'0 0.0 140 / 41016.1 9.6 6.9
2017-Apr-19 12:00N 49°18' W 123°06'0 0.0 080 / 41016.3 10.0 6.3
2017-Apr-19 11:00N 49°18' W 123°06'0 0.0 110 / 61016.4 9.0 7.2
2017-Apr-19 10:00N 49°18' W 123°06'0 0.0 140 / 41017.1 8.7 7.9
2017-Apr-19 09:00N 49°18' W 123°06'0 0.0 120 / 41017.4 9.1 7.4
2017-Apr-19 08:00N 49°18' W 123°06'0 0.0 070 / 91017.8 9.7 7.0
2017-Apr-19 07:00N 49°18' W 123°06'0 0.0 110 / 21018.0 9.7 7.7
2017-Apr-19 06:00N 49°18' W 123°06'0 0.0 080 / 41018.0 9.4 7.6
2017-Apr-19 05:00N 49°18' W 123°06'0 0.0 100 / 21017.7 9.6 8.0
2017-Apr-19 04:00N 49°18' W 123°06'0 0.0 020 / 11017.3 10.6 8.5
2017-Apr-19 03:00N 49°18' W 123°06'0 0.0 1016.6 11.2 8.8
2017-Apr-19 02:00N 49°18' W 123°06'0 0.0 030 / 21016.4 12.1 8.1
2017-Apr-19 01:00N 49°18' W 123°06'   290 / 71015.8 13.0 6.6
Track history (hours):
 
Tides and Currents Weather Stations Pressure Air Temp Water Temp Dewpoint Dewpoint Depression Visibility Wind Speed Wind Dir Waves Ship Positions

Oceanographic research ship CCGS Sir Wilfrid Laurier (Canada)

Detailed information on ship capabilities available from ARCUS's ALIAS (Arctic Logistics Information and Support) project.

Last reported at 2017-Apr-25 16:00 UTC. Time now 2017-Apr-25 16:34 UTC.
Position N 48°24' W 123°24'.

Length 83 m; beam 16.2 m; draft 6 m.

Type: SAR. MMSI: 316052000.

Wind from 150 at 5 knots

Barometer 1013.1 mb
Air temperature 10.6 ° C
Dewpoint 7.0 ° C
Water temperature 10.3 ° C

Date/timePositionNaut miles runAvg speedWind from/ knotsBaromVisibWave heightAir tempDewpointWater temp
2017-Apr-25 16:00N 48°24' W 123°24'0 0.0 150 / 51013.1 10.6 7.010.3
2017-Apr-25 15:00N 48°24' W 123°24'110.8 150 / 21013.8 9.9 6.910.2
2017-Apr-25 14:52N 48°25' W 123°23'0 0.4
2017-Apr-25 14:30N 48°25' W 123°24'1 2.3
2017-Apr-25 14:00N 48°24' W 123°24'2 3.5 250 / 41013.6 9.8 6.7 9.6
2017-Apr-25 13:30N 48°23' W 123°26'1 1.7
2017-Apr-25 13:00N 48°23' W 123°27'2157.5
2017-Apr-25 13:00N 48°24' W 123°30'3 5.4 230 / 101013.1 9.8 7.0 9.6
2017-Apr-25 12:30N 48°21' W 123°29'0 0.6
2017-Apr-25 12:00N 48°21' W 123°29'3187.5
2017-Apr-25 12:00N 48°24' W 123°30'3 5.4 220 / 61012.9 9.6 7.2 9.6
2017-Apr-25 11:30N 48°22' W 123°28'0 0.2
2017-Apr-25 11:00N 48°22' W 123°28'3275.0
2017-Apr-25 11:00N 48°24' W 123°30'3 5.2 250 / 91012.9 9.5 7.9 9.7
2017-Apr-25 10:30N 48°22' W 123°29'1 2.4
2017-Apr-25 10:00N 48°21' W 123°30'3177.0
2017-Apr-25 10:00N 48°18' W 123°30'3 6.3 250 / 101012.9 9.3 8.5 9.8
2017-Apr-25 09:30N 48°21' W 123°29'2 3.1
2017-Apr-25 09:00N 48°22' W 123°28'2148.8
2017-Apr-25 09:00N 48°24' W 123°30'2 4.7 250 / 151012.3 9.7 8.8 9.6
2017-Apr-25 08:30N 48°22' W 123°27'1 1.3
2017-Apr-25 08:00N 48°23' W 123°27'2 3.8
2017-Apr-25 07:30N 48°23' W 123°24'5 9.2
2017-Apr-25 07:00N 48°23' W 123°17'159.0
2017-Apr-25 07:00N 48°24' W 123°18'4 8.8 260 / 171011.5 10.4 9.2 9.5
2017-Apr-25 06:30N 48°26' W 123°12'612.1
2017-Apr-25 06:01N 48°32' W 123°13'2136.6
2017-Apr-25 06:00N 48°30' W 123°12'817.5 200 / 71010.9 11.0 8.2 9.5
2017-Apr-25 05:30N 48°38' W 123°15'510.8
2017-Apr-25 05:00N 48°43' W 123°12'186.8
2017-Apr-25 05:00N 48°42' W 123°12'612.3 080 / 21010.6 10.8 7.9 9.5
2017-Apr-25 04:30N 48°46' W 123°05'5 9.5
2017-Apr-25 04:00N 48°50' W 123°02'2164.5
2017-Apr-25 04:00N 48°48' W 123°00'817.2 200 / 101009.4 12.0 7.510.9
2017-Apr-25 03:30N 48°54' W 123°08'612.2
2017-Apr-25 03:00N 48°58' W 123°16'4503.2
2017-Apr-25 03:00N 48°54' W 123°18'918.5 240 / 51008.7 12.2 9.311.5
2017-Apr-25 02:30N 49°03' W 123°22'611.1
2017-Apr-25 02:00N 49°08' W 123°23'2142.8
2017-Apr-25 02:00N 49°06' W 123°24'817.1 300 / 141008.0 12.6 8.411.1
2017-Apr-25 01:30N 49°14' W 123°22'3 6.9
2017-Apr-25 01:00N 49°18' W 123°22'182.0
2017-Apr-25 01:00N 49°18' W 123°24'2 3.6 280 / 151007.7 12.1 8.711.3
2017-Apr-25 00:30N 49°18' W 123°21'0 0.1
2017-Apr-25 00:00N 49°18' W 123°21'2122.3
2017-Apr-25 00:00N 49°18' W 123°24'1 1.6 280 / 141007.8 11.4 9.011.1
2017-Apr-24 23:30N 49°18' W 123°25'2 4.2
2017-Apr-24 23:01N 49°18' W 123°22'178.7
2017-Apr-24 23:00N 49°18' W 123°24'2 4.1 280 / 161007.8 11.3 9.111.3
2017-Apr-24 22:30N 49°18' W 123°21'2 4.5
2017-Apr-24 22:00N 49°19' W 123°18'165.3
2017-Apr-24 22:00N 49°18' W 123°18'3 7.2 270 / 181007.8 10.6 8.711.5
2017-Apr-24 21:30N 49°19' W 123°13'5 9.8
2017-Apr-24 21:01N 49°18' W 123°06'014.4
2017-Apr-24 21:00N 49°18' W 123°06'1 1.9 260 / 161008.0 11.0 7.2 9.8
2017-Apr-24 20:29N 49°18' W 123°05'1 2.0
2017-Apr-24 20:00N 49°18' W 123°06'1110.6 270 / 71008.1 11.5 8.1
2017-Apr-24 19:59N 49°18' W 123°05'0 0.0
2017-Apr-24 19:29N 49°18' W 123°05'1 2.0
2017-Apr-24 19:00N 49°18' W 123°06'1107.2 270 / 41008.1 11.0 7.7
2017-Apr-24 18:59N 49°18' W 123°05'0 0.0
2017-Apr-24 18:29N 49°18' W 123°05'1 2.0
2017-Apr-24 18:00N 49°18' W 123°06'1110.6 180 / 11008.1 11.0 7.0
2017-Apr-24 17:59N 49°18' W 123°05'0 0.0
2017-Apr-24 17:29N 49°18' W 123°05'1 2.0
2017-Apr-24 17:00N 49°18' W 123°06'1107.5 180 / 21008.0 9.5 7.9
2017-Apr-24 16:59N 49°18' W 123°05'0 0.0
2017-Apr-24 16:29N 49°18' W 123°05'1 2.0
2017-Apr-24 16:00N 49°18' W 123°06'1114.2 130 / 21007.9 8.2 7.9
2017-Apr-24 15:59N 49°18' W 123°05'0 0.0
2017-Apr-24 15:29N 49°18' W 123°05'1 2.0
2017-Apr-24 15:00N 49°18' W 123°06'1107.2 100 / 11007.6 7.8 7.2
2017-Apr-24 14:59N 49°18' W 123°05'0 0.0
2017-Apr-24 14:29N 49°18' W 123°05'1 2.0
2017-Apr-24 14:00N 49°18' W 123°06'1 1.9 130 / 21007.4 7.1 6.9
2017-Apr-24 13:29N 49°18' W 123°05'1 2.0
2017-Apr-24 13:00N 49°18' W 123°06'1107.2 110 / 11007.4 7.0 6.8
2017-Apr-24 12:59N 49°18' W 123°05'0 0.0
2017-Apr-24 12:29N 49°18' W 123°05'1 2.0
2017-Apr-24 12:00N 49°18' W 123°06'1110.6 110 / 11007.5 7.2 6.8
2017-Apr-24 11:59N 49°18' W 123°05'0 0.0
2017-Apr-24 11:29N 49°18' W 123°05'1 2.0
2017-Apr-24 11:00N 49°18' W 123°06'1110.6 040 / 71007.6 7.4 6.0
2017-Apr-24 10:59N 49°18' W 123°05'0 0.0
2017-Apr-24 10:29N 49°18' W 123°05'1 2.0
2017-Apr-24 10:00N 49°18' W 123°06'1110.6 050 / 101007.9 7.4 6.1
2017-Apr-24 09:59N 49°18' W 123°05'0 0.0
2017-Apr-24 09:29N 49°18' W 123°05'1 2.0
2017-Apr-24 09:00N 49°18' W 123°06'1110.9 040 / 21008.3 7.6 7.3
2017-Apr-24 08:59N 49°18' W 123°05'0 0.0
2017-Apr-24 08:29N 49°18' W 123°05'1 2.0
2017-Apr-24 08:00N 49°18' W 123°06'1107.2 340 / 21008.4 8.6 8.0
2017-Apr-24 07:59N 49°18' W 123°05'0 0.0
2017-Apr-24 07:29N 49°18' W 123°05'1 2.0
2017-Apr-24 07:00N 49°18' W 123°06'1107.2 1008.6 8.6 8.4
2017-Apr-24 06:59N 49°18' W 123°05'0 0.0
2017-Apr-24 06:29N 49°18' W 123°05'1 2.0
2017-Apr-24 06:00N 49°18' W 123°06'1107.2 010 / 31008.6 9.4 9.1
2017-Apr-24 05:59N 49°18' W 123°05'0 0.0
2017-Apr-24 05:29N 49°18' W 123°05'1 2.0
2017-Apr-24 05:00N 49°18' W 123°06'1110.6 090 / 31008.6 9.4 9.2
2017-Apr-24 04:59N 49°18' W 123°05'0 0.0
2017-Apr-24 04:29N 49°18' W 123°05'1 2.0
2017-Apr-24 04:00N 49°18' W 123°06'1110.6 080 / 61008.4 9.5 9.3
2017-Apr-24 03:59N 49°18' W 123°05'0 0.0
2017-Apr-24 03:29N 49°18' W 123°05'1 2.0
2017-Apr-24 03:00N 49°18' W 123°06'1110.6 080 / 51008.2 9.8 9.3
2017-Apr-24 02:59N 49°18' W 123°05'0 0.0
2017-Apr-24 02:29N 49°18' W 123°05'1 2.0
2017-Apr-24 02:00N 49°18' W 123°06'1110.6 080 / 41008.5 10.2 9.4
2017-Apr-24 01:59N 49°18' W 123°05'0 0.0
2017-Apr-24 01:29N 49°18' W 123°05'1 2.0
2017-Apr-24 01:00N 49°18' W 123°06'1107.2 080 / 61009.0 10.5 9.6
2017-Apr-24 00:59N 49°18' W 123°05'0 0.0
2017-Apr-24 00:29N 49°18' W 123°05'1 2.0
2017-Apr-24 00:00N 49°18' W 123°06'1110.9 080 / 61009.1 11.1 8.8
2017-Apr-23 23:59N 49°18' W 123°05'0 0.0
2017-Apr-23 23:29N 49°18' W 123°05'1 2.0
2017-Apr-23 23:00N 49°18' W 123°06'1110.6 070 / 41009.3 11.9 8.9
2017-Apr-23 22:59N 49°18' W 123°05'0 0.0
2017-Apr-23 22:29N 49°18' W 123°05'1 2.0
2017-Apr-23 22:00N 49°18' W 123°06'1107.2 090 / 41009.6 13.3 7.0
2017-Apr-23 21:59N 49°18' W 123°05'0 0.0
2017-Apr-23 21:29N 49°18' W 123°05'1 2.0
2017-Apr-23 21:00N 49°18' W 123°06'1107.2 100 / 51010.3 13.0 7.2
2017-Apr-23 20:59N 49°18' W 123°05'0 0.0
2017-Apr-23 20:29N 49°18' W 123°05'1 2.0
2017-Apr-23 20:00N 49°18' W 123°06'1104.4 100 / 41011.2 12.1 7.6
2017-Apr-23 19:59N 49°18' W 123°05'0 0.0
2017-Apr-23 19:29N 49°18' W 123°05'1 2.0
2017-Apr-23 19:00N 49°18' W 123°06'1107.2 090 / 51011.8 11.6 8.0
2017-Apr-23 18:59N 49°18' W 123°05'0 0.0
2017-Apr-23 18:29N 49°18' W 123°05'1 2.0
2017-Apr-23 18:00N 49°18' W 123°06'1107.2 090 / 51012.1 11.4 8.2
2017-Apr-23 17:59N 49°18' W 123°05'0 0.0
2017-Apr-23 17:29N 49°18' W 123°05'1 2.0
2017-Apr-23 17:00N 49°18' W 123°06'1110.6 100 / 51011.9 10.6 8.8
2017-Apr-23 16:59N 49°18' W 123°05'0 0.0
2017-Apr-23 16:29N 49°18' W 123°05'1 2.0
2017-Apr-23 16:00N 49°18' W 123°06'1107.2 080 / 51012.1 9.6 9.1
2017-Apr-23 15:59N 49°18' W 123°05'0 0.0
2017-Apr-23 15:29N 49°18' W 123°05'1 2.0
2017-Apr-23 15:00N 49°18' W 123°06'1110.6 080 / 41012.5 9.3 9.0
2017-Apr-23 14:59N 49°18' W 123°05'1 1.0
2017-Apr-23 14:00N 49°18' W 123°06'1104.1 080 / 41012.4 8.9 8.8
2017-Apr-23 13:59N 49°18' W 123°05'0 0.0
2017-Apr-23 13:29N 49°18' W 123°05'1 2.0
2017-Apr-23 13:00N 49°18' W 123°06'1104.1 110 / 31012.5 8.6 8.4
2017-Apr-23 12:59N 49°18' W 123°05'0 0.0
2017-Apr-23 12:29N 49°18' W 123°05'1 2.0
2017-Apr-23 12:00N 49°18' W 123°06'1110.6 060 / 21012.5 9.3 8.4
2017-Apr-23 11:59N 49°18' W 123°05'0 0.0
2017-Apr-23 11:29N 49°18' W 123°05'1 2.0
2017-Apr-23 11:00N 49°18' W 123°06'1107.2 070 / 41013.1 8.8 8.3
2017-Apr-23 10:59N 49°18' W 123°05'0 0.0
2017-Apr-23 10:29N 49°18' W 123°05'1 2.0
2017-Apr-23 10:00N 49°18' W 123°06'1107.2 090 / 61013.3 8.9 8.7
2017-Apr-23 09:59N 49°18' W 123°05'0 0.0
2017-Apr-23 09:29N 49°18' W 123°05'1 2.0
2017-Apr-23 09:00N 49°18' W 123°06'1104.1 050 / 11013.6 9.6 9.4
2017-Apr-23 08:59N 49°18' W 123°05'0 0.0
2017-Apr-23 08:29N 49°18' W 123°05'1 2.0
2017-Apr-23 08:00N 49°18' W 123°06'1107.2 070 / 11013.6 9.8 9.6
2017-Apr-23 07:59N 49°18' W 123°05'0 0.0
2017-Apr-23 07:29N 49°18' W 123°05'1 2.0
2017-Apr-23 07:00N 49°18' W 123°06'1104.1 190 / 11013.4 10.7 9.0
2017-Apr-23 06:59N 49°18' W 123°05'0 0.0
2017-Apr-23 06:29N 49°18' W 123°05'1 2.0
2017-Apr-23 06:00N 49°18' W 123°06'1107.2 340 / 11013.5 11.8 9.1
2017-Apr-23 05:59N 49°18' W 123°05'0 0.0
2017-Apr-23 05:29N 49°18' W 123°05'1 2.0
2017-Apr-23 05:00N 49°18' W 123°06'1104.1 1013.4 11.510.3
2017-Apr-23 04:59N 49°18' W 123°05'0 0.0
2017-Apr-23 04:29N 49°18' W 123°05'1 2.0
2017-Apr-23 04:00N 49°18' W 123°06'1110.6 080 / 41012.6 12.310.0
2017-Apr-23 03:59N 49°18' W 123°05'0 0.0
2017-Apr-23 03:29N 49°18' W 123°05'1 2.0
2017-Apr-23 03:00N 49°18' W 123°06'1110.6 080 / 61012.0 11.910.8
2017-Apr-23 02:59N 49°18' W 123°05'0 0.0
2017-Apr-23 02:29N 49°18' W 123°05'1 2.0
2017-Apr-23 02:00N 49°18' W 123°06'1107.2 120 / 41011.4 11.310.9
2017-Apr-23 01:59N 49°18' W 123°05'0 0.0
2017-Apr-23 01:29N 49°18' W 123°05'1 2.0
2017-Apr-23 01:00N 49°18' W 123°06'116.6 080 / 61011.1 11.910.6
2017-Apr-23 00:56N 49°18' W 123°05'0 0.0
2017-Apr-23 00:29N 49°18' W 123°05'1 2.0
2017-Apr-23 00:00N 49°18' W 123°06'1107.5 090 / 41010.8 12.810.0
2017-Apr-22 23:59N 49°18' W 123°05'0 0.0
2017-Apr-22 23:29N 49°18' W 123°05'1 2.0
2017-Apr-22 23:00N 49°18' W 123°06'1107.2 080 / 81010.9 12.6 9.3
2017-Apr-22 22:59N 49°18' W 123°05'0 0.0
2017-Apr-22 22:29N 49°18' W 123°05'1 2.0
2017-Apr-22 22:00N 49°18' W 123°06'1107.5 060 / 71011.0 11.8 9.4
2017-Apr-22 21:59N 49°18' W 123°05'0 0.0
2017-Apr-22 21:29N 49°18' W 123°05'1 2.0
2017-Apr-22 21:00N 49°18' W 123°06'1107.5 170 / 101011.2 11.9 9.1
2017-Apr-22 20:59N 49°18' W 123°05'0 0.0
2017-Apr-22 20:29N 49°18' W 123°05'1 2.0
2017-Apr-22 20:00N 49°18' W 123°06'1104.4 180 / 11009.0 13.1 7.6
2017-Apr-22 19:59N 49°18' W 123°05'0 0.0
2017-Apr-22 19:29N 49°18' W 123°05'1 2.0
2017-Apr-22 19:00N 49°18' W 123°06'1107.2 320 / 61008.2 12.8 8.1
2017-Apr-22 18:59N 49°18' W 123°05'0 0.0
2017-Apr-22 18:29N 49°18' W 123°05'1 2.0
2017-Apr-22 18:00N 49°18' W 123°06'1104.4 260 / 11007.6 12.2 7.9
2017-Apr-22 17:59N 49°18' W 123°05'0 0.0
2017-Apr-22 17:29N 49°18' W 123°05'1 2.0
2017-Apr-22 17:00N 49°18' W 123°06'1110.9 270 / 41008.2 12.4 6.0
2017-Apr-22 16:59N 49°18' W 123°05'0 0.0
2017-Apr-22 16:29N 49°18' W 123°05'1 2.0
2017-Apr-22 16:00N 49°18' W 123°06'1107.2 290 / 21007.9 12.5 5.5
2017-Apr-22 15:59N 49°18' W 123°05'0 0.0
2017-Apr-22 15:29N 49°18' W 123°05'1 2.0
2017-Apr-22 15:00N 49°18' W 123°06'1104.1 320 / 11009.1 11.6 5.5
2017-Apr-22 14:59N 49°18' W 123°05'0 0.0
2017-Apr-22 14:29N 49°18' W 123°05'1 2.0
2017-Apr-22 14:00N 49°18' W 123°06'1 1.9 270 / 11009.9 11.7 4.4
2017-Apr-22 13:29N 49°18' W 123°05'1 2.0
2017-Apr-22 13:00N 49°18' W 123°06'1107.2 120 / 21010.8 11.0 4.9
2017-Apr-22 12:59N 49°18' W 123°05'0 0.0
2017-Apr-22 12:29N 49°18' W 123°05'1 2.0
2017-Apr-22 12:00N 49°18' W 123°06'1107.2 090 / 21012.0 10.3 5.4
2017-Apr-22 11:59N 49°18' W 123°05'0 0.0
2017-Apr-22 11:29N 49°18' W 123°05'1 2.0
2017-Apr-22 11:00N 49°18' W 123°06'1107.5 280 / 11013.2 11.3 5.2
2017-Apr-22 10:59N 49°18' W 123°05'0 0.0
2017-Apr-22 10:29N 49°18' W 123°05'1 2.0
2017-Apr-22 10:00N 49°18' W 123°06'1104.1 090 / 31013.8 11.3 5.0
2017-Apr-22 09:59N 49°18' W 123°05'0 0.0
2017-Apr-22 09:29N 49°18' W 123°05'1 2.0
2017-Apr-22 09:00N 49°18' W 123°06'1107.5 080 / 11014.9 12.2 4.4
2017-Apr-22 08:59N 49°18' W 123°05'0 0.0
2017-Apr-22 08:29N 49°18' W 123°05'1 2.0
2017-Apr-22 08:00N 49°18' W 123°06'1107.2 060 / 21016.2 12.4 3.7
2017-Apr-22 07:59N 49°18' W 123°05'0 0.0
2017-Apr-22 07:29N 49°18' W 123°05'1 2.0
2017-Apr-22 07:00N 49°18' W 123°06'1104.1 080 / 31016.9 13.0 4.0
2017-Apr-22 06:59N 49°18' W 123°05'0 0.0
2017-Apr-22 06:29N 49°18' W 123°05'1 2.0
2017-Apr-22 06:00N 49°18' W 123°06'1107.2 130 / 11017.6 13.5 4.0
2017-Apr-22 05:59N 49°18' W 123°05'0 0.0
2017-Apr-22 05:29N 49°18' W 123°05'1 2.0
2017-Apr-22 05:00N 49°18' W 123°06'1107.2 140 / 21018.3 13.8 4.1
2017-Apr-22 04:59N 49°18' W 123°05'0 0.0
2017-Apr-22 04:29N 49°18' W 123°05'1 2.0
2017-Apr-22 04:00N 49°18' W 123°06'1104.4 340 / 11019.1 14.2 5.6
2017-Apr-22 03:59N 49°18' W 123°05'0 0.0
2017-Apr-22 03:29N 49°18' W 123°05'1 2.0
2017-Apr-22 03:00N 49°18' W 123°06'1104.4 260 / 11020.0 14.5 7.8
2017-Apr-22 02:59N 49°18' W 123°05'0 0.0
2017-Apr-22 02:29N 49°18' W 123°05'1 2.0
2017-Apr-22 02:00N 49°18' W 123°06'1107.2 280 / 31020.6 15.6 8.2
2017-Apr-22 01:59N 49°18' W 123°05'0 0.0
2017-Apr-22 01:29N 49°18' W 123°05'1 2.0
2017-Apr-22 01:00N 49°18' W 123°06'1104.1 270 / 21022.0 14.7 7.5
2017-Apr-22 00:59N 49°18' W 123°05'0 0.0
2017-Apr-22 00:29N 49°18' W 123°05'1 2.0
2017-Apr-22 00:00N 49°18' W 123°06'1104.4 290 / 41022.9 14.6 7.6
2017-Apr-21 23:59N 49°18' W 123°05'0 0.0
2017-Apr-21 23:29N 49°18' W 123°05'1 2.0
2017-Apr-21 23:00N 49°18' W 123°06'1104.1 290 / 21024.2 14.6 7.8
2017-Apr-21 22:59N 49°18' W 123°05'0 0.0
2017-Apr-21 22:29N 49°18' W 123°05'1 2.0
2017-Apr-21 22:00N 49°18' W 123°06'1104.4 280 / 41025.2 14.2 8.5
2017-Apr-21 21:59N 49°18' W 123°05'0 0.0
2017-Apr-21 21:30N 49°18' W 123°05'0 0.0
2017-Apr-21 21:00N 49°18' W 123°05'0 0.0
2017-Apr-21 20:30N 49°18' W 123°05'0 0.0
2017-Apr-21 20:00N 49°18' W 123°05'184.5
2017-Apr-21 20:00N 49°18' W 123°06'1 2.0 310 / 21027.4 15.1 8.9
2017-Apr-21 19:30N 49°18' W 123°05'0 0.0
2017-Apr-21 19:00N 49°18' W 123°05'186.3
2017-Apr-21 19:00N 49°18' W 123°06'1 2.0 280 / 41028.2 14.2 8.5
2017-Apr-21 18:30N 49°18' W 123°05'1 1.9
2017-Apr-21 18:00N 49°18' W 123°06'0 0.0 170 / 11029.2 13.5 7.5
2017-Apr-21 17:00N 49°18' W 123°06'0 0.0 160 / 21029.9 12.1 7.9
2017-Apr-21 16:00N 49°18' W 123°06'0 0.0 120 / 51030.1 11.2 7.6
2017-Apr-21 15:00N 49°18' W 123°06'0 0.0 130 / 31030.3 10.6 7.1
2017-Apr-21 14:00N 49°18' W 123°06'0 0.0 130 / 31030.4 8.3 6.4
2017-Apr-21 13:00N 49°18' W 123°06'0 0.0 130 / 11030.2 8.1 6.5
2017-Apr-21 12:00N 49°18' W 123°06'0 0.0 140 / 11029.9 7.8 6.5
2017-Apr-21 11:00N 49°18' W 123°06'0 0.0 110 / 31029.8 7.3 6.1
2017-Apr-21 10:00N 49°18' W 123°06'0 0.0 110 / 41029.4 7.2 6.2
2017-Apr-21 09:00N 49°18' W 123°06'0 0.0 100 / 21029.3 8.1 6.1
2017-Apr-21 08:00N 49°18' W 123°06'0 0.0 120 / 11029.1 8.1 6.5
2017-Apr-21 07:00N 49°18' W 123°06'0 0.0 110 / 21028.9 8.9 6.5
2017-Apr-21 06:00N 49°18' W 123°06'0 0.0 080 / 11028.2 10.0 6.4
2017-Apr-21 05:00N 49°18' W 123°06'0 0.0 080 / 21027.7 10.3 6.8
2017-Apr-21 04:00N 49°18' W 123°06'0 0.0 350 / 31026.7 12.2 7.5
2017-Apr-21 03:00N 49°18' W 123°06'0 0.0 310 / 31026.0 12.5 6.4
2017-Apr-21 02:00N 49°18' W 123°06'0 0.0 290 / 31025.4 13.3 6.5
2017-Apr-21 01:00N 49°18' W 123°06'0 0.0 310 / 41025.3 13.7 7.1
2017-Apr-21 00:00N 49°18' W 123°06'0 0.0 320 / 61024.8 14.4 7.3
2017-Apr-20 23:00N 49°18' W 123°06'0 0.0 300 / 31024.3 14.8 8.6
2017-Apr-20 22:00N 49°18' W 123°06'0 0.0 180 / 21024.0 12.5 8.1
2017-Apr-20 21:00N 49°18' W 123°06'0 0.0 290 / 11023.7 13.4 9.8
2017-Apr-20 20:00N 49°18' W 123°06'0 0.0 110 / 11023.4 11.1 8.8
2017-Apr-20 19:00N 49°18' W 123°06'0 0.0 150 / 21022.9 11.3 8.5
2017-Apr-20 18:00N 49°18' W 123°06'0 0.0 150 / 41022.4 10.1 8.2
2017-Apr-20 17:00N 49°18' W 123°06'0 0.0 120 / 31021.9 10.5 8.0
2017-Apr-20 16:00N 49°18' W 123°06'0 0.0 130 / 31021.4 8.6 7.4
2017-Apr-20 15:00N 49°18' W 123°06'0 0.0 130 / 31020.7 7.8 7.3
2017-Apr-20 14:00N 49°18' W 123°06'0 0.0 120 / 41020.1 7.4 6.9
2017-Apr-20 13:00N 49°18' W 123°06'0 0.0 110 / 41019.5 7.4 6.7
2017-Apr-20 12:00N 49°18' W 123°06'0 0.0 070 / 21018.9 8.3 6.7
2017-Apr-20 11:00N 49°18' W 123°06'0 0.0 070 / 81018.8 8.3 6.6
2017-Apr-20 10:00N 49°18' W 123°06'0 0.0 080 / 31018.3 8.8 8.1
2017-Apr-20 09:00N 49°18' W 123°06'0 0.0 090 / 31017.8 9.4 9.0
2017-Apr-20 08:00N 49°18' W 123°06'0 0.0 060 / 41017.8 9.5 8.8
2017-Apr-20 07:00N 49°18' W 123°06'0 0.0 220 / 11016.8 10.2 8.3
2017-Apr-20 06:00N 49°18' W 123°06'0 0.0 130 / 31016.6 10.7 7.4
2017-Apr-20 05:00N 49°18' W 123°06'0 0.0 070 / 51016.3 11.8 6.3
2017-Apr-20 04:00N 49°18' W 123°06'0 0.0 070 / 71016.2 12.3 6.3
2017-Apr-20 03:00N 49°18' W 123°06'0 0.0 090 / 31016.7 12.4 6.8
2017-Apr-20 02:00N 49°18' W 123°06'0 0.0 100 / 41017.1 12.8 6.8
2017-Apr-20 01:00N 49°18' W 123°06'0 0.0 110 / 71017.6 13.2 6.6
2017-Apr-20 00:00N 49°18' W 123°06'0 0.0 140 / 71017.5 12.9 6.4
2017-Apr-19 23:00N 49°18' W 123°06'0 0.0 150 / 51018.2 12.6 7.0
2017-Apr-19 22:00N 49°18' W 123°06'0 0.0 150 / 111018.3 12.2 7.0
2017-Apr-19 21:00N 49°18' W 123°06'0 0.0 160 / 81017.8 11.9 7.4
2017-Apr-19 20:00N 49°18' W 123°06'0 0.0 090 / 31017.7 11.4 7.8
2017-Apr-19 19:00N 49°18' W 123°06'0 0.0 140 / 71016.9 12.5 6.2
2017-Apr-19 18:00N 49°18' W 123°06'0 0.0 150 / 71015.8 12.8 5.7
2017-Apr-19 17:00N 49°18' W 123°06'0 0.0 090 / 41015.1 14.0 4.9
2017-Apr-19 16:00N 49°18' W 123°06'0 0.0 100 / 51015.5 12.4 5.1
2017-Apr-19 15:00N 49°18' W 123°06'0 0.0 120 / 41015.7 10.7 6.6
2017-Apr-19 14:00N 49°18' W 123°06'0 0.0 130 / 41015.6 10.0 7.0
2017-Apr-19 13:00N 49°18' W 123°06'0 0.0 140 / 41016.1 9.6 6.9
2017-Apr-19 12:00N 49°18' W 123°06'0 0.0 080 / 41016.3 10.0 6.3
2017-Apr-19 11:00N 49°18' W 123°06'0 0.0 110 / 61016.4 9.0 7.2
2017-Apr-19 10:00N 49°18' W 123°06'0 0.0 140 / 41017.1 8.7 7.9
2017-Apr-19 09:00N 49°18' W 123°06'0 0.0 120 / 41017.4 9.1 7.4
2017-Apr-19 08:00N 49°18' W 123°06'0 0.0 070 / 91017.8 9.7 7.0
2017-Apr-19 07:00N 49°18' W 123°06'0 0.0 110 / 21018.0 9.7 7.7
2017-Apr-19 06:00N 49°18' W 123°06'0 0.0 080 / 41018.0 9.4 7.6
2017-Apr-19 05:00N 49°18' W 123°06'0 0.0 100 / 21017.7 9.6 8.0
2017-Apr-19 04:00N 49°18' W 123°06'0 0.0 020 / 11017.3 10.6 8.5
2017-Apr-19 03:00N 49°18' W 123°06'0 0.0 1016.6 11.2 8.8
2017-Apr-19 02:00N 49°18' W 123°06'0 0.0 030 / 21016.4 12.1 8.1
2017-Apr-19 01:00N 49°18' W 123°06'   290 / 71015.8 13.0 6.6

Dump ship's entire track history